createdAt,value
2018-09-04T00:00:28.730Z,62.00
2018-09-04T00:01:28.720Z,61.50
2018-09-04T00:02:28.709Z,62.10
2018-09-04T00:03:28.693Z,60.60
2018-09-04T00:04:28.685Z,59.30
2018-09-04T00:05:28.672Z,58.30
2018-09-04T00:06:28.660Z,59.10
2018-09-04T00:07:28.652Z,59.20
2018-09-04T00:08:28.640Z,58.20
2018-09-04T00:09:28.625Z,57.00
2018-09-04T00:10:28.612Z,57.00
2018-09-04T00:11:28.607Z,54.40
2018-09-04T00:12:28.593Z,55.60
2018-09-04T00:13:28.581Z,55.40
2018-09-04T00:14:28.572Z,51.80
2018-09-04T00:15:28.556Z,55.40
2018-09-04T00:16:28.547Z,52.90
2018-09-04T00:17:28.537Z,52.10
2018-09-04T00:18:28.522Z,53.60
2018-09-04T00:19:28.522Z,54.30
2018-09-04T00:20:28.505Z,51.50
2018-09-04T00:21:28.487Z,53.40
2018-09-04T00:22:28.478Z,51.50
2018-09-04T00:23:28.471Z,51.70
2018-09-04T00:24:28.458Z,50.50
2018-09-04T00:25:28.446Z,52.90
2018-09-04T00:26:28.435Z,50.00
2018-09-04T00:27:28.422Z,49.30
2018-09-04T00:28:28.412Z,52.20
2018-09-04T00:29:28.400Z,49.10
2018-09-04T00:30:28.389Z,49.70
2018-09-04T00:31:28.380Z,52.10
2018-09-04T00:32:28.371Z,51.70
2018-09-04T00:33:28.356Z,51.20
2018-09-04T00:34:28.421Z,50.70
2018-09-04T00:35:28.332Z,51.90
2018-09-04T00:36:28.320Z,50.00
2018-09-04T00:37:28.308Z,52.30
2018-09-04T00:38:28.304Z,54.30
2018-09-04T00:39:28.293Z,55.20
2018-09-04T00:40:28.276Z,53.80
2018-09-04T00:41:28.263Z,53.90
2018-09-04T00:42:28.251Z,55.90
2018-09-04T00:43:28.242Z,55.00
2018-09-04T00:44:28.235Z,55.30
2018-09-04T00:45:28.216Z,56.40
2018-09-04T00:46:28.207Z,56.00
2018-09-04T00:47:28.194Z,55.30
2018-09-04T00:48:28.182Z,55.90
2018-09-04T00:49:28.172Z,55.90
2018-09-04T00:50:28.160Z,53.70
2018-09-04T00:51:28.148Z,52.90
2018-09-04T00:52:28.137Z,53.80
2018-09-04T00:53:28.126Z,56.00
2018-09-04T00:54:28.114Z,54.20
2018-09-04T00:55:28.102Z,55.90
2018-09-04T00:56:28.090Z,56.10
2018-09-04T00:57:28.080Z,57.80
2018-09-04T00:58:28.073Z,56.10
2018-09-04T00:59:28.070Z,55.00
2018-09-04T01:00:28.046Z,58.60
2018-09-04T01:01:28.034Z,58.60
2018-09-04T01:02:28.024Z,55.40
2018-09-04T01:03:28.014Z,56.30
2018-09-04T01:04:28.000Z,60.50
2018-09-04T01:05:27.989Z,58.60
2018-09-04T01:06:27.977Z,58.50
2018-09-04T01:07:27.965Z,60.10
2018-09-04T01:08:27.955Z,59.80
2018-09-04T01:09:27.948Z,59.20
2018-09-04T01:10:27.938Z,59.60
2018-09-04T01:11:27.923Z,60.40
2018-09-04T01:12:27.909Z,58.00
2018-09-04T01:13:27.899Z,59.80
2018-09-04T01:14:27.888Z,59.50
2018-09-04T01:15:27.876Z,59.70
2018-09-04T01:16:27.868Z,58.00
2018-09-04T01:17:27.853Z,59.00
2018-09-04T01:18:27.842Z,59.10
2018-09-04T01:19:27.828Z,60.30
2018-09-04T01:20:27.824Z,58.90
2018-09-04T01:21:27.806Z,59.00
2018-09-04T01:22:27.796Z,57.80
2018-09-04T01:23:27.783Z,59.00
2018-09-04T01:24:27.773Z,58.00
2018-09-04T01:25:27.761Z,57.20
2018-09-04T01:26:27.748Z,56.50
2018-09-04T01:27:27.738Z,58.70
2018-09-04T01:28:27.723Z,56.80
2018-09-04T01:29:27.715Z,58.60
2018-09-04T01:30:27.701Z,57.10
2018-09-04T01:31:27.691Z,56.20
2018-09-04T01:32:27.680Z,56.20
2018-09-04T01:33:27.667Z,57.80
2018-09-04T01:34:27.659Z,57.80
2018-09-04T01:35:27.645Z,57.00
2018-09-04T01:36:27.637Z,58.40
2018-09-04T01:37:27.623Z,57.10
2018-09-04T01:38:27.614Z,57.10
2018-09-04T01:39:27.598Z,55.70
2018-09-04T01:40:27.596Z,55.10
2018-09-04T01:41:27.575Z,54.80
2018-09-04T01:42:27.562Z,55.80
2018-09-04T01:43:27.550Z,56.60
2018-09-04T01:44:27.543Z,55.00
2018-09-04T01:45:27.529Z,56.60
2018-09-04T01:46:27.519Z,55.40
2018-09-04T01:47:27.512Z,55.70
2018-09-04T01:48:27.494Z,56.40
2018-09-04T01:49:27.480Z,54.90
2018-09-04T01:50:27.469Z,53.40
2018-09-04T01:51:27.461Z,55.00
2018-09-04T01:52:27.446Z,54.20
2018-09-04T01:53:27.433Z,53.70
2018-09-04T01:54:27.422Z,56.30
2018-09-04T01:55:27.409Z,58.20
2018-09-04T01:56:27.403Z,56.60
2018-09-04T01:57:27.387Z,56.80
2018-09-04T01:58:27.383Z,56.60
2018-09-04T01:59:27.368Z,56.50
2018-09-04T02:00:27.355Z,56.90
2018-09-04T02:01:27.343Z,55.20
2018-09-04T02:02:27.331Z,58.60
2018-09-04T02:03:27.321Z,56.60
2018-09-04T02:04:27.308Z,55.70
2018-09-04T02:05:27.297Z,56.60
2018-09-04T02:06:27.288Z,58.80
2018-09-04T02:07:27.275Z,58.40
2018-09-04T02:08:27.263Z,57.40
2018-09-04T02:09:27.251Z,58.30
2018-09-04T02:10:27.239Z,58.30
2018-09-04T02:11:27.230Z,56.50
2018-09-04T02:12:27.215Z,57.90
2018-09-04T02:13:27.205Z,59.00
2018-09-04T02:14:27.193Z,57.40
2018-09-04T02:15:27.182Z,58.10
2018-09-04T02:16:27.177Z,57.00
2018-09-04T02:17:27.158Z,58.60
2018-09-04T02:18:27.147Z,57.90
2018-09-04T02:19:27.132Z,60.60
2018-09-04T02:20:27.122Z,58.30
2018-09-04T02:21:27.110Z,60.30
2018-09-04T02:22:27.104Z,57.40
2018-09-04T02:23:27.089Z,57.50
2018-09-04T02:24:27.080Z,57.50
2018-09-04T02:25:27.065Z,58.70
2018-09-04T02:26:27.060Z,58.80
2018-09-04T02:27:27.050Z,56.70
2018-09-04T02:28:27.029Z,55.00
2018-09-04T02:29:27.023Z,56.20
2018-09-04T02:30:27.008Z,55.60
2018-09-04T02:31:26.998Z,56.20
2018-09-04T02:32:26.984Z,56.80
2018-09-04T02:33:26.971Z,56.00
2018-09-04T02:34:26.962Z,58.30
2018-09-04T02:35:26.949Z,56.50
2018-09-04T02:36:26.941Z,59.20
2018-09-04T02:37:26.932Z,59.00
2018-09-04T02:38:26.914Z,57.70
2018-09-04T02:39:26.915Z,57.80
2018-09-04T02:40:26.892Z,57.20
2018-09-04T02:41:26.880Z,58.00
2018-09-04T02:42:26.873Z,59.60
2018-09-04T02:43:26.856Z,59.90
2018-09-04T02:44:26.851Z,56.20
2018-09-04T02:45:26.835Z,60.00
2018-09-04T02:46:26.823Z,58.30
2018-09-04T02:47:26.815Z,61.10
2018-09-04T02:48:26.798Z,60.90
2018-09-04T02:49:26.792Z,59.20
2018-09-04T02:50:26.777Z,59.00
2018-09-04T02:51:26.767Z,60.70
2018-09-04T02:52:26.754Z,57.90
2018-09-04T02:53:26.741Z,59.00
2018-09-04T02:54:26.730Z,59.50
2018-09-04T02:55:26.721Z,57.90
2018-09-04T02:56:26.707Z,58.80
2018-09-04T02:57:26.695Z,58.90
2018-09-04T02:58:26.684Z,58.70
2018-09-04T02:59:26.673Z,58.70
2018-09-04T03:00:26.659Z,58.80
2018-09-04T03:01:26.649Z,58.50
2018-09-04T03:02:26.637Z,60.10
2018-09-04T03:03:26.627Z,60.80
2018-09-04T03:04:26.616Z,62.00
2018-09-04T03:05:26.605Z,62.30
2018-09-04T03:06:26.591Z,59.60
2018-09-04T03:07:26.578Z,61.20
2018-09-04T03:08:26.566Z,60.40
2018-09-04T03:09:26.557Z,60.20
2018-09-04T03:10:26.544Z,61.30
2018-09-04T03:11:26.533Z,61.50
2018-09-04T03:12:26.521Z,59.80
2018-09-04T03:13:26.532Z,58.80
2018-09-04T03:14:26.504Z,60.80
2018-09-04T03:15:26.487Z,59.40
2018-09-04T03:16:26.475Z,59.70
2018-09-04T03:17:26.466Z,60.30
2018-09-04T03:18:26.452Z,60.90
2018-09-04T03:19:26.439Z,60.20
2018-09-04T03:20:26.429Z,62.70
2018-09-04T03:21:26.415Z,60.40
2018-09-04T03:22:26.412Z,59.30
2018-09-04T03:23:26.392Z,60.50
2018-09-04T03:24:26.383Z,60.20
2018-09-04T03:25:26.418Z,60.00
2018-09-04T03:26:26.357Z,60.00
2018-09-04T03:27:26.347Z,62.10
2018-09-04T03:28:26.333Z,60.30
2018-09-04T03:29:26.321Z,61.10
2018-09-04T03:30:26.318Z,59.40
2018-09-04T03:31:26.299Z,58.60
2018-09-04T03:32:26.286Z,60.50
2018-09-04T03:33:26.276Z,59.90
2018-09-04T03:34:26.268Z,61.30
2018-09-04T03:35:26.255Z,60.00
2018-09-04T03:36:26.241Z,59.90
2018-09-04T03:37:26.230Z,58.10
2018-09-04T03:38:26.222Z,59.10
2018-09-04T03:39:26.207Z,59.60
2018-09-04T03:40:26.196Z,60.10
2018-09-04T03:41:26.183Z,59.60
2018-09-04T03:42:26.288Z,60.70
2018-09-04T03:43:26.160Z,60.90
2018-09-04T03:44:26.269Z,61.10
2018-09-04T03:45:26.140Z,63.50
2018-09-04T03:46:26.125Z,64.50
2018-09-04T03:47:26.116Z,62.90
2018-09-04T03:48:26.102Z,62.30
2018-09-04T03:49:26.094Z,60.00
2018-09-04T03:50:26.080Z,58.40
2018-09-04T03:51:26.068Z,57.70
2018-09-04T03:52:26.127Z,59.90
2018-09-04T03:53:26.045Z,59.60
2018-09-04T03:54:26.033Z,58.80
2018-09-04T03:55:26.021Z,59.60
2018-09-04T03:56:26.008Z,59.60
2018-09-04T03:57:26.000Z,60.50
2018-09-04T03:58:25.987Z,60.50
2018-09-04T03:59:26.006Z,58.90
2018-09-04T04:00:25.962Z,60.50
2018-09-04T04:01:26.042Z,59.80
2018-09-04T04:02:25.952Z,61.30
2018-09-04T04:03:25.930Z,60.40
2018-09-04T04:04:25.917Z,61.10
2018-09-04T04:05:25.904Z,60.30
2018-09-04T04:06:25.894Z,59.50
2018-09-04T04:07:25.883Z,62.00
2018-09-04T04:08:25.869Z,61.70
2018-09-04T04:09:25.865Z,63.50
2018-09-04T04:10:25.847Z,62.20
2018-09-04T04:11:25.834Z,63.40
2018-09-04T04:12:25.823Z,61.80
2018-09-04T04:13:25.812Z,62.10
2018-09-04T04:14:25.799Z,63.30
2018-09-04T04:15:25.795Z,63.40
2018-09-04T04:16:25.777Z,61.10
2018-09-04T04:17:25.763Z,61.80
2018-09-04T04:18:25.757Z,59.10
2018-09-04T04:19:25.742Z,60.30
2018-09-04T04:20:25.728Z,62.80
2018-09-04T04:21:25.719Z,62.00
2018-09-04T04:22:25.706Z,63.50
2018-09-04T04:23:25.696Z,61.70
2018-09-04T04:24:25.683Z,61.70
2018-09-04T04:25:25.672Z,59.00
2018-09-04T04:26:25.663Z,61.00
2018-09-04T04:27:25.651Z,60.00
2018-09-04T04:28:25.634Z,62.70
2018-09-04T04:29:25.651Z,62.50
2018-09-04T04:30:25.618Z,68.00
2018-09-04T04:31:25.604Z,89.30
2018-09-04T04:32:25.591Z,84.50
2018-09-04T04:33:25.578Z,98.50
2018-09-04T04:34:25.570Z,78.40
2018-09-04T04:35:25.558Z,72.20
2018-09-04T04:36:25.547Z,74.90
2018-09-04T04:37:25.538Z,71.60
2018-09-04T04:38:25.523Z,65.40
2018-09-04T04:39:25.532Z,64.50
2018-09-04T04:40:25.505Z,63.70
2018-09-04T04:41:25.492Z,62.20
2018-09-04T04:42:25.478Z,62.60
2018-09-04T04:43:25.464Z,65.80
2018-09-04T04:44:25.461Z,67.80
2018-09-04T04:45:25.442Z,66.70
2018-09-04T04:46:25.429Z,65.10
2018-09-04T04:47:25.421Z,62.20
2018-09-04T04:48:25.480Z,63.10
2018-09-04T04:49:25.396Z,64.90
2018-09-04T04:50:25.384Z,62.00
2018-09-04T04:51:25.370Z,62.20
2018-09-04T04:52:25.359Z,63.10
2018-09-04T04:53:25.354Z,61.10
2018-09-04T04:54:25.339Z,60.80
2018-09-04T04:55:25.324Z,64.00
2018-09-04T04:56:25.314Z,65.30
2018-09-04T04:57:25.301Z,62.10
2018-09-04T04:58:25.292Z,60.00
2018-09-04T04:59:25.282Z,62.90
2018-09-04T05:00:25.323Z,60.90
2018-09-04T05:01:25.263Z,60.30
2018-09-04T05:02:25.243Z,60.40
2018-09-04T05:03:25.242Z,62.10
2018-09-04T05:04:25.218Z,60.70
2018-09-04T05:05:25.209Z,61.50
2018-09-04T05:06:25.196Z,59.60
2018-09-04T05:07:25.186Z,60.10
2018-09-04T05:08:25.171Z,61.50
2018-09-04T05:09:25.160Z,60.90
2018-09-04T05:10:25.145Z,62.40
2018-09-04T05:11:25.217Z,62.30
2018-09-04T05:12:25.130Z,61.70
2018-09-04T05:13:25.119Z,61.00
2018-09-04T05:14:25.100Z,58.10
2018-09-04T05:15:25.089Z,61.10
2018-09-04T05:16:25.077Z,61.50
2018-09-04T05:17:25.064Z,59.30
2018-09-04T05:18:25.052Z,60.40
2018-09-04T05:19:25.041Z,61.80
2018-09-04T05:20:25.028Z,65.00
2018-09-04T05:21:25.024Z,61.80
2018-09-04T05:22:25.009Z,60.00
2018-09-04T05:23:24.996Z,62.70
2018-09-04T05:24:24.982Z,63.00
2018-09-04T05:25:24.973Z,65.80
2018-09-04T05:26:24.988Z,62.70
2018-09-04T05:27:24.949Z,61.70
2018-09-04T05:28:24.937Z,62.50
2018-09-04T05:29:24.975Z,67.30
2018-09-04T05:30:24.914Z,64.40
2018-09-04T05:31:24.904Z,67.00
2018-09-04T05:32:24.889Z,65.90
2018-09-04T05:33:24.879Z,65.30
2018-09-04T05:34:24.869Z,64.90
2018-09-04T05:35:24.860Z,63.50
2018-09-04T05:36:24.844Z,63.70
2018-09-04T05:37:24.833Z,62.70
2018-09-04T05:38:24.822Z,63.30
2018-09-04T05:39:24.810Z,66.80
2018-09-04T05:40:24.799Z,64.50
2018-09-04T05:41:24.787Z,64.80
2018-09-04T05:42:24.775Z,64.20
2018-09-04T05:43:24.762Z,63.00
2018-09-04T05:44:24.753Z,64.50
2018-09-04T05:45:24.738Z,62.90
2018-09-04T05:46:24.726Z,61.60
2018-09-04T05:47:24.718Z,62.90
2018-09-04T05:48:24.713Z,64.20
2018-09-04T05:49:24.707Z,65.00
2018-09-04T05:50:24.686Z,65.20
2018-09-04T05:51:24.670Z,66.70
2018-09-04T05:52:24.658Z,66.10
2018-09-04T05:53:24.651Z,74.10
2018-09-04T05:54:24.634Z,71.40
2018-09-04T05:55:24.629Z,65.70
2018-09-04T05:56:24.616Z,65.00
2018-09-04T05:57:24.603Z,68.50
2018-09-04T05:58:24.593Z,68.50
2018-09-04T05:59:24.582Z,66.30
2018-09-04T06:00:24.567Z,64.00
2018-09-04T06:01:24.557Z,65.70
2018-09-04T06:02:24.544Z,66.10
2018-09-04T06:03:24.533Z,65.80
2018-09-04T06:04:24.519Z,65.20
2018-09-04T06:05:24.515Z,65.30
2018-09-04T06:06:24.496Z,64.70
2018-09-04T06:07:24.490Z,65.60
2018-09-04T06:08:24.478Z,64.20
2018-09-04T06:09:24.465Z,65.00
2018-09-04T06:10:24.454Z,65.20
2018-09-04T06:11:24.443Z,63.80
2018-09-04T06:12:24.429Z,63.30
2018-09-04T06:13:24.417Z,66.50
2018-09-04T06:14:24.407Z,62.60
2018-09-04T06:15:24.395Z,61.60
2018-09-04T06:16:24.389Z,63.60
2018-09-04T06:17:24.373Z,63.60
2018-09-04T06:18:24.371Z,64.70
2018-09-04T06:19:24.358Z,65.10
2018-09-04T06:20:24.342Z,64.30
2018-09-04T06:21:24.334Z,63.80
2018-09-04T06:22:24.319Z,62.50
2018-09-04T06:23:24.307Z,65.40
2018-09-04T06:24:24.300Z,69.40
2018-09-04T06:25:24.286Z,71.20
2018-09-04T06:26:24.277Z,68.30
2018-09-04T06:27:24.263Z,67.70
2018-09-04T06:28:24.256Z,68.20
2018-09-04T06:29:24.303Z,66.50
2018-09-04T06:30:24.232Z,64.70
2018-09-04T06:31:24.218Z,69.10
2018-09-04T06:32:24.207Z,68.40
2018-09-04T06:33:24.197Z,71.40
2018-09-04T06:34:24.186Z,66.40
2018-09-04T06:35:24.183Z,68.90
2018-09-04T06:36:24.170Z,70.70
2018-09-04T06:37:24.160Z,69.20
2018-09-04T06:38:24.142Z,70.40
2018-09-04T06:39:24.134Z,71.30
2018-09-04T06:40:24.119Z,69.90
2018-09-04T06:41:24.108Z,70.50
2018-09-04T06:42:24.106Z,69.20
2018-09-04T06:43:24.087Z,68.70
2018-09-04T06:44:24.075Z,70.60
2018-09-04T06:45:24.066Z,68.30
2018-09-04T06:46:24.078Z,70.30
2018-09-04T06:47:24.051Z,70.40
2018-09-04T06:48:24.038Z,70.20
2018-09-04T06:49:24.029Z,71.50
2018-09-04T06:50:24.014Z,68.40
2018-09-04T06:51:24.001Z,67.80
2018-09-04T06:52:23.990Z,69.10
2018-09-04T06:53:23.978Z,69.70
2018-09-04T06:54:23.967Z,69.80
2018-09-04T06:55:23.955Z,69.50
2018-09-04T06:56:23.952Z,72.30
2018-09-04T06:57:23.934Z,70.90
2018-09-04T06:58:23.924Z,71.50
2018-09-04T06:59:23.914Z,69.40
2018-09-04T07:00:23.902Z,72.20
2018-09-04T07:01:23.896Z,70.90
2018-09-04T07:02:23.881Z,72.90
2018-09-04T07:03:23.871Z,70.10
2018-09-04T07:04:23.859Z,68.60
2018-09-04T07:05:23.852Z,71.00
2018-09-04T07:06:23.839Z,69.70
2018-09-04T07:07:23.830Z,69.70
2018-09-04T07:08:23.816Z,70.00
2018-09-04T07:09:23.808Z,69.60
2018-09-04T07:10:23.796Z,68.10
2018-09-04T07:11:23.786Z,69.00
2018-09-04T07:12:23.776Z,67.70
2018-09-04T07:13:23.764Z,73.10
2018-09-04T07:14:23.753Z,70.20
2018-09-04T07:15:23.748Z,70.40
2018-09-04T07:16:23.744Z,71.80
2018-09-04T07:17:23.722Z,70.70
2018-09-04T07:18:23.712Z,66.70
2018-09-04T07:19:23.704Z,68.90
2018-09-04T07:20:23.696Z,70.50
2018-09-04T07:21:23.680Z,67.20
2018-09-04T07:22:23.673Z,70.20
2018-09-04T07:23:23.668Z,68.00
2018-09-04T07:24:23.871Z,70.70
2018-09-04T07:25:23.640Z,68.70
2018-09-04T07:26:23.626Z,68.10
2018-09-04T07:27:23.628Z,67.60
2018-09-04T07:28:23.605Z,68.90
2018-09-04T07:29:23.595Z,69.90
2018-09-04T07:30:23.585Z,69.60
2018-09-04T07:31:23.574Z,67.60
2018-09-04T07:32:23.563Z,70.70
2018-09-04T07:33:23.553Z,71.10
2018-09-04T07:34:23.548Z,68.40
2018-09-04T07:35:23.532Z,65.30
2018-09-04T07:36:23.583Z,70.20
2018-09-04T07:37:23.512Z,69.60
2018-09-04T07:38:23.505Z,70.00
2018-09-04T07:39:23.489Z,69.40
2018-09-04T07:40:23.484Z,69.90
2018-09-04T07:41:23.470Z,68.90
2018-09-04T07:42:23.461Z,69.60
2018-09-04T07:43:23.449Z,69.70
2018-09-04T07:44:23.441Z,68.40
2018-09-04T07:45:23.425Z,68.80
2018-09-04T07:46:23.417Z,70.80
2018-09-04T07:47:23.406Z,68.80
2018-09-04T07:48:23.397Z,69.10
2018-09-04T07:49:23.388Z,67.40
2018-09-04T07:50:23.376Z,68.20
2018-09-04T07:51:23.370Z,68.50
2018-09-04T07:52:23.352Z,69.70
2018-09-04T07:53:23.344Z,69.60
2018-09-04T07:54:23.335Z,71.20
2018-09-04T07:55:23.326Z,68.90
2018-09-04T07:56:23.312Z,67.60
2018-09-04T07:57:23.302Z,69.90
2018-09-04T07:58:23.294Z,68.00
2018-09-04T07:59:23.281Z,68.20
2018-09-04T08:00:23.274Z,68.70
2018-09-04T08:01:23.264Z,68.70
2018-09-04T08:02:23.255Z,66.60
2018-09-04T08:03:23.243Z,68.60
2018-09-04T08:04:23.231Z,69.10
2018-09-04T08:05:23.231Z,66.30
2018-09-04T08:06:23.212Z,66.70
2018-09-04T08:07:23.206Z,67.90
2018-09-04T08:08:23.194Z,67.40
2018-09-04T08:09:23.184Z,66.50
2018-09-04T08:10:23.180Z,67.20
2018-09-04T08:11:23.162Z,66.40
2018-09-04T08:12:23.158Z,66.90
2018-09-04T08:13:23.145Z,66.50
2018-09-04T08:14:23.133Z,67.20
2018-09-04T08:15:23.123Z,65.10
2018-09-04T08:16:23.123Z,65.70
2018-09-04T08:17:23.104Z,66.30
2018-09-04T08:18:23.098Z,65.60
2018-09-04T08:19:23.082Z,68.00
2018-09-04T08:20:23.094Z,66.60
2018-09-04T08:21:23.067Z,66.40
2018-09-04T08:22:23.056Z,68.10
2018-09-04T08:23:23.046Z,65.00
2018-09-04T08:24:23.037Z,64.70
2018-09-04T08:25:23.026Z,64.00
2018-09-04T08:26:23.025Z,65.50
2018-09-04T08:27:23.006Z,64.20
2018-09-04T08:28:23.003Z,65.60
2018-09-04T08:29:22.987Z,63.90
2018-09-04T08:30:23.013Z,64.30
2018-09-04T08:31:22.970Z,62.70
2018-09-04T08:32:22.960Z,61.80
2018-09-04T08:33:23.053Z,62.50
2018-09-04T08:34:22.954Z,66.00
2018-09-04T08:35:22.935Z,65.40
2018-09-04T08:36:22.923Z,65.60
2018-09-04T08:37:22.915Z,62.20
2018-09-04T08:38:22.915Z,62.50
2018-09-04T08:39:22.900Z,63.90
2018-09-04T08:40:22.894Z,61.60
2018-09-04T08:41:22.896Z,65.50
2018-09-04T08:42:22.876Z,63.00
2018-09-04T08:43:22.865Z,63.50
2018-09-04T08:44:22.852Z,61.90
2018-09-04T08:45:22.854Z,63.90
2018-09-04T08:46:22.842Z,59.70
2018-09-04T08:47:22.904Z,63.30
2018-09-04T08:48:22.819Z,64.80
2018-09-04T08:49:22.811Z,59.90
2018-09-04T08:50:22.807Z,62.00
2018-09-04T08:51:22.798Z,59.20
2018-09-04T08:52:22.785Z,58.10
2018-09-04T08:53:22.834Z,57.80
2018-09-04T08:54:22.775Z,57.30
2018-09-04T08:55:22.850Z,57.60
2018-09-04T08:56:22.758Z,56.90
2018-09-04T08:57:22.750Z,55.60
2018-09-04T08:58:22.749Z,55.30
2018-09-04T08:59:22.736Z,55.20
2018-09-04T09:00:22.734Z,55.90
2018-09-04T09:01:22.724Z,54.70
2018-09-04T09:02:22.717Z,55.60
2018-09-04T09:03:22.721Z,54.10
2018-09-04T09:04:22.710Z,53.30
2018-09-04T09:05:22.718Z,52.40
2018-09-04T09:06:22.698Z,53.20
2018-09-04T09:07:22.697Z,54.80
2018-09-04T09:08:22.701Z,54.40
2018-09-04T09:09:22.686Z,53.20
2018-09-04T09:10:22.682Z,52.70
2018-09-04T09:11:22.677Z,53.30
2018-09-04T09:12:22.674Z,52.50
2018-09-04T09:13:22.676Z,50.70
2018-09-04T09:14:22.665Z,48.80
2018-09-04T09:15:22.664Z,48.70
2018-09-04T09:16:22.658Z,49.70
2018-09-04T09:17:22.654Z,49.80
2018-09-04T09:18:22.652Z,52.00
2018-09-04T09:19:22.649Z,51.70
2018-09-04T09:20:22.650Z,52.40
2018-09-04T09:21:22.645Z,51.70
2018-09-04T09:22:22.649Z,52.20
2018-09-04T09:23:22.640Z,50.90
2018-09-04T09:24:22.635Z,49.80
2018-09-04T09:25:22.631Z,48.90
2018-09-04T09:26:22.626Z,47.80
2018-09-04T09:27:22.620Z,47.90
2018-09-04T09:28:22.620Z,44.90
2018-09-04T09:29:22.613Z,46.80
2018-09-04T09:30:22.607Z,47.10
2018-09-04T09:31:22.602Z,46.70
2018-09-04T09:32:22.597Z,46.40
2018-09-04T09:33:22.594Z,46.30
2018-09-04T09:34:22.594Z,49.10
2018-09-04T09:35:22.584Z,47.30
2018-09-04T09:36:22.617Z,47.80
2018-09-04T09:37:22.580Z,49.10
2018-09-04T09:38:22.572Z,46.60
2018-09-04T09:39:22.565Z,48.20
2018-09-04T09:40:22.558Z,49.80
2018-09-04T09:41:22.553Z,46.70
2018-09-04T09:42:22.546Z,46.60
2018-09-04T09:43:22.545Z,47.10
2018-09-04T09:44:22.535Z,45.90
2018-09-04T09:45:22.529Z,46.50
2018-09-04T09:46:22.524Z,45.70
2018-09-04T09:47:22.519Z,45.40
2018-09-04T09:48:22.511Z,46.00
2018-09-04T09:49:22.510Z,46.10
2018-09-04T09:50:22.500Z,44.50
2018-09-04T09:51:22.495Z,46.50
2018-09-04T09:52:22.491Z,47.90
2018-09-04T09:53:22.741Z,48.30
2018-09-04T09:54:22.476Z,47.40
2018-09-04T09:55:22.474Z,46.60
2018-09-04T09:56:22.494Z,44.90
2018-09-04T09:57:22.458Z,43.70
2018-09-04T09:58:22.461Z,45.50
2018-09-04T09:59:22.452Z,45.70
2018-09-04T10:00:22.445Z,44.40
2018-09-04T10:01:22.436Z,41.40
2018-09-04T10:02:22.429Z,42.20
2018-09-04T10:03:22.431Z,43.50
2018-09-04T10:04:22.416Z,43.80
2018-09-04T10:05:22.412Z,41.60
2018-09-04T10:06:22.402Z,42.50
2018-09-04T10:07:22.407Z,42.90
2018-09-04T10:08:22.425Z,43.50
2018-09-04T10:09:22.388Z,43.50
2018-09-04T10:10:22.384Z,44.20
2018-09-04T10:11:22.377Z,44.90
2018-09-04T10:12:22.368Z,44.80
2018-09-04T10:13:22.369Z,44.80
2018-09-04T10:14:22.355Z,43.10
2018-09-04T10:15:22.350Z,42.00
2018-09-04T10:16:22.345Z,40.70
2018-09-04T10:17:22.337Z,42.10
2018-09-04T10:18:22.336Z,41.70
2018-09-04T10:19:22.330Z,41.50
2018-09-04T10:20:22.321Z,37.20
2018-09-04T10:21:22.394Z,40.40
2018-09-04T10:22:22.310Z,39.40
2018-09-04T10:23:22.313Z,38.60
2018-09-04T10:24:22.300Z,37.50
2018-09-04T10:25:22.297Z,36.90
2018-09-04T10:26:22.300Z,36.40
2018-09-04T10:27:22.283Z,37.50
2018-09-04T10:28:22.288Z,35.50
2018-09-04T10:29:22.275Z,36.00
2018-09-04T10:30:22.274Z,38.20
2018-09-04T10:31:22.269Z,40.50
2018-09-04T10:32:22.265Z,39.00
2018-09-04T10:33:22.260Z,39.50
2018-09-04T10:34:22.258Z,40.10
2018-09-04T10:35:22.263Z,39.60
2018-09-04T10:36:22.317Z,38.30
2018-09-04T10:37:22.245Z,35.70
2018-09-04T10:38:22.241Z,37.80
2018-09-04T10:39:22.239Z,34.90
2018-09-04T10:40:22.243Z,35.40
2018-09-04T10:41:22.236Z,36.00
2018-09-04T10:42:22.229Z,35.50
2018-09-04T10:43:22.224Z,36.90
2018-09-04T10:44:22.343Z,36.60
2018-09-04T10:45:22.225Z,33.60
2018-09-04T10:46:22.213Z,36.20
2018-09-04T10:47:22.210Z,33.60
2018-09-04T10:48:22.206Z,34.90
2018-09-04T10:49:22.206Z,38.40
2018-09-04T10:50:22.207Z,38.40
2018-09-04T10:51:22.203Z,33.20
2018-09-04T10:52:22.197Z,36.10
2018-09-04T10:53:22.190Z,34.50
2018-09-04T10:54:22.189Z,33.10
2018-09-04T10:55:22.185Z,30.80
2018-09-04T10:56:22.182Z,32.20
2018-09-04T10:57:22.177Z,34.60
2018-09-04T10:58:22.175Z,34.90
2018-09-04T10:59:22.172Z,37.00
2018-09-04T11:00:22.172Z,35.00
2018-09-04T11:01:22.168Z,33.60
2018-09-04T11:02:22.320Z,33.30
2018-09-04T11:03:22.159Z,32.80
2018-09-04T11:04:22.357Z,32.50
2018-09-04T11:05:22.155Z,36.10
2018-09-04T11:06:22.151Z,33.70
2018-09-04T11:07:22.157Z,34.50
2018-09-04T11:08:22.142Z,31.00
2018-09-04T11:09:22.196Z,31.10
2018-09-04T11:10:22.134Z,33.10
2018-09-04T11:11:22.136Z,34.40
2018-09-04T11:12:22.129Z,34.60
2018-09-04T11:13:22.124Z,32.40
2018-09-04T11:14:22.122Z,31.40
2018-09-04T11:15:22.127Z,30.30
2018-09-04T11:16:22.122Z,26.20
2018-09-04T11:17:22.116Z,26.60
2018-09-04T11:18:22.119Z,26.80
2018-09-04T11:19:22.108Z,28.50
2018-09-04T11:20:22.107Z,29.70
2018-09-04T11:21:22.100Z,30.20
2018-09-04T11:22:22.099Z,30.20
2018-09-04T11:23:22.093Z,29.20
2018-09-04T11:24:22.091Z,27.10
2018-09-04T11:25:22.096Z,26.80
2018-09-04T11:26:22.083Z,27.20
2018-09-04T11:27:22.081Z,29.00
2018-09-04T11:28:22.075Z,26.80
2018-09-04T11:29:22.072Z,26.10
2018-09-04T11:30:22.072Z,25.60
2018-09-04T11:31:22.070Z,25.80
2018-09-04T11:32:22.062Z,25.70
2018-09-04T11:33:22.062Z,26.10
2018-09-04T11:34:22.073Z,27.70
2018-09-04T11:35:22.055Z,27.20
2018-09-04T11:36:22.056Z,27.60
2018-09-04T11:37:22.051Z,28.40
2018-09-04T11:38:22.042Z,30.70
2018-09-04T11:39:22.040Z,27.70
2018-09-04T11:40:22.036Z,42.60
2018-09-04T11:41:22.032Z,96.20
2018-09-04T11:42:22.033Z,54.60
2018-09-04T11:43:22.035Z,35.10
2018-09-04T11:44:22.026Z,44.20
2018-09-04T11:45:22.031Z,66.60
2018-09-04T11:46:22.018Z,83.50
2018-09-04T11:47:22.013Z,48.80
2018-09-04T11:48:22.011Z,53.10
2018-09-04T11:49:22.008Z,100.80
2018-09-04T11:50:22.001Z,72.00
2018-09-04T11:51:21.999Z,35.90
2018-09-04T11:52:22.017Z,29.20
2018-09-04T11:53:21.989Z,28.50
2018-09-04T11:54:21.988Z,26.90
2018-09-04T11:55:21.987Z,25.90
2018-09-04T11:56:21.977Z,26.10
2018-09-04T11:57:21.977Z,26.80
2018-09-04T11:58:21.970Z,25.30
2018-09-04T11:59:21.970Z,28.90
2018-09-04T12:00:21.964Z,29.80
2018-09-04T12:01:21.958Z,29.20
2018-09-04T12:02:21.957Z,29.70
2018-09-04T12:03:21.956Z,28.50
2018-09-04T12:04:21.948Z,27.40
2018-09-04T12:05:21.946Z,26.20
2018-09-04T12:06:21.941Z,30.30
2018-09-04T12:07:21.945Z,30.50
2018-09-04T12:08:21.943Z,30.70
2018-09-04T12:09:21.932Z,29.20
2018-09-04T12:10:21.926Z,29.10
2018-09-04T12:11:21.923Z,30.70
2018-09-04T12:12:21.977Z,29.40
2018-09-04T12:13:21.919Z,30.40
2018-09-04T12:14:21.911Z,30.60
2018-09-04T12:15:21.909Z,29.40
2018-09-04T12:16:21.901Z,31.50
2018-09-04T12:17:21.895Z,31.10
2018-09-04T12:18:21.895Z,28.30
2018-09-04T12:19:21.892Z,29.70
2018-09-04T12:20:21.900Z,29.30
2018-09-04T12:21:21.903Z,29.10
2018-09-04T12:22:21.883Z,27.00
2018-09-04T12:23:21.875Z,26.00
2018-09-04T12:24:21.869Z,26.30
2018-09-04T12:25:21.874Z,26.60
2018-09-04T12:26:21.857Z,26.60
2018-09-04T12:27:21.971Z,24.30
2018-09-04T12:28:21.855Z,24.30
2018-09-04T12:29:21.843Z,25.30
2018-09-04T12:30:21.840Z,26.70
2018-09-04T12:31:21.837Z,25.10
2018-09-04T12:32:21.830Z,24.80
2018-09-04T12:33:21.825Z,24.50
2018-09-04T12:34:21.824Z,23.00
2018-09-04T12:35:21.818Z,24.20
2018-09-04T12:36:21.821Z,25.80
2018-09-04T12:37:21.810Z,23.90
2018-09-04T12:38:21.801Z,23.00
2018-09-04T12:39:21.798Z,23.30
2018-09-04T12:40:21.795Z,23.80
2018-09-04T12:41:21.792Z,24.50
2018-09-04T12:42:21.820Z,22.40
2018-09-04T12:43:21.783Z,20.60
2018-09-04T12:44:21.848Z,20.60
2018-09-04T12:45:21.788Z,20.00
2018-09-04T12:46:21.768Z,19.60
2018-09-04T12:47:21.770Z,21.10
2018-09-04T12:48:21.764Z,19.00
2018-09-04T12:49:21.771Z,20.40
2018-09-04T12:50:21.756Z,19.40
2018-09-04T12:51:21.748Z,20.50
2018-09-04T12:52:21.745Z,20.00